createdAt,value
2019-05-15T00:01:54.615Z,100101.59
2019-05-15T00:04:30.558Z,100109.08
2019-05-15T00:07:08.813Z,100102.13
2019-05-15T00:09:44.163Z,100096.49
2019-05-15T00:12:20.273Z,100093.39
2019-05-15T00:14:58.088Z,100090.48
2019-05-15T00:17:33.925Z,100084.66
2019-05-15T00:20:10.600Z,100076.84
2019-05-15T00:22:48.410Z,100063.52
2019-05-15T00:25:24.263Z,100067.05
2019-05-15T00:28:00.322Z,100058.69
2019-05-15T00:30:38.489Z,100050.37
2019-05-15T00:33:14.987Z,100053.36
2019-05-15T00:35:50.945Z,100066.10
2019-05-15T00:38:27.991Z,100051.95
2019-05-15T00:41:04.200Z,100052.89
2019-05-15T00:43:40.158Z,100041.77
2019-05-15T00:46:18.325Z,100040.16
2019-05-15T00:48:54.220Z,100043.44
2019-05-15T00:51:30.288Z,100036.40
2019-05-15T00:54:08.403Z,100040.45
2019-05-15T00:56:44.587Z,100034.31
2019-05-15T00:59:26.347Z,100041.27
2019-05-15T01:01:59.409Z,100037.89
2019-05-15T01:04:35.593Z,100031.28
2019-05-15T01:07:11.552Z,100028.55
2019-05-15T01:09:48.728Z,100026.84
2019-05-15T01:12:24.786Z,100026.94
2019-05-15T01:15:01.863Z,100019.47
2019-05-15T01:17:39.776Z,100015.90
2019-05-15T01:20:15.731Z,100013.30
2019-05-15T01:22:51.676Z,100016.41
2019-05-15T01:25:28.082Z,100008.56
2019-05-15T01:28:04.211Z,100001.41
2019-05-15T01:30:41.183Z,100005.80
2019-05-15T01:33:18.923Z,100003.06
2019-05-15T01:35:54.797Z,100003.02
2019-05-15T01:38:30.807Z,100001.36
2019-05-15T01:41:06.764Z,99996.25
2019-05-15T01:43:43.844Z,99992.58
2019-05-15T01:46:19.787Z,99989.94
2019-05-15T01:48:55.759Z,99988.14
2019-05-15T01:51:31.714Z,99984.86
2019-05-15T01:54:09.113Z,99973.82
2019-05-15T01:56:49.226Z,99973.40
2019-05-15T01:59:24.292Z,99972.63
2019-05-15T02:02:00.237Z,99977.02
2019-05-15T02:04:36.195Z,99967.34
2019-05-15T02:07:12.156Z,99968.92
2019-05-15T02:09:49.238Z,99963.59
2019-05-15T02:12:28.439Z,99963.59
2019-05-15T02:15:08.660Z,99958.56
2019-05-15T02:17:44.778Z,99963.85
2019-05-15T02:20:20.661Z,99957.20
2019-05-15T02:22:59.017Z,99956.27
2019-05-15T02:25:34.402Z,99959.38
2019-05-15T02:28:10.365Z,99956.27
2019-05-15T02:30:50.028Z,99966.45
2019-05-15T02:33:24.430Z,99955.41
2019-05-15T02:36:00.401Z,99953.63
2019-05-15T02:38:40.411Z,99943.98
2019-05-15T02:41:14.292Z,99943.85
2019-05-15T02:43:50.363Z,99946.84
2019-05-15T02:46:26.362Z,99942.02
2019-05-15T02:49:02.270Z,99936.73
2019-05-15T02:51:40.018Z,99938.39
2019-05-15T02:54:19.305Z,99939.37
2019-05-15T02:56:53.872Z,99937.24
2019-05-15T02:59:29.837Z,99936.39
2019-05-15T03:02:05.887Z,99930.81
2019-05-15T03:04:41.849Z,99932.03
2019-05-15T03:07:19.307Z,99930.25
2019-05-15T03:09:55.480Z,99929.66
2019-05-15T03:12:31.442Z,99939.03
2019-05-15T03:15:09.630Z,99928.51
2019-05-15T03:17:45.107Z,99927.66
2019-05-15T03:20:21.054Z,99928.46
2019-05-15T03:22:59.691Z,99934.47
2019-05-15T03:25:34.713Z,99925.77
2019-05-15T03:28:11.141Z,99932.81
2019-05-15T03:31:17.833Z,99936.00
2019-05-15T03:33:29.968Z,99927.73
2019-05-15T03:36:03.769Z,99924.96
2019-05-15T03:38:40.020Z,99931.57
2019-05-15T03:41:19.175Z,99926.33
2019-05-15T03:43:53.671Z,99934.13
2019-05-15T03:46:29.629Z,99936.78
2019-05-15T03:49:08.440Z,99928.84
2019-05-15T03:51:45.932Z,99928.46
2019-05-15T03:54:20.972Z,99921.17
2019-05-15T03:56:58.528Z,99919.90
2019-05-15T03:59:34.727Z,99927.27
2019-05-15T04:02:10.823Z,99917.16
2019-05-15T04:04:49.829Z,99922.36
2019-05-15T04:07:24.555Z,99913.20
2019-05-15T04:10:00.525Z,99924.11
2019-05-15T04:12:39.845Z,99924.11
2019-05-15T04:15:14.471Z,99919.16
2019-05-15T04:17:50.434Z,99923.51
2019-05-15T04:20:29.467Z,99927.42
2019-05-15T04:23:04.083Z,99925.64
2019-05-15T04:25:40.478Z,99921.16
2019-05-15T04:28:19.385Z,99925.98
2019-05-15T04:30:55.336Z,99928.02
2019-05-15T04:33:31.293Z,99917.11
2019-05-15T04:36:09.790Z,99915.79
2019-05-15T04:38:44.943Z,99918.44
2019-05-15T04:41:20.893Z,99915.79
2019-05-15T04:43:59.563Z,99907.98
2019-05-15T04:46:34.436Z,99906.44
2019-05-15T04:49:10.821Z,99909.52
2019-05-15T04:51:49.816Z,99904.64
2019-05-15T04:54:24.564Z,99907.21
2019-05-15T04:57:00.527Z,99902.91
2019-05-15T04:59:38.985Z,99906.07
2019-05-15T05:02:24.208Z,99902.52
2019-05-15T05:04:51.865Z,99906.44
2019-05-15T05:07:29.585Z,99908.81
2019-05-15T05:10:09.156Z,99901.41
2019-05-15T05:12:43.944Z,99897.20
2019-05-15T05:15:19.903Z,99894.61
2019-05-15T05:17:58.424Z,99891.31
2019-05-15T05:20:33.658Z,99892.45
2019-05-15T05:23:09.602Z,99887.16
2019-05-15T05:25:45.763Z,99887.08
2019-05-15T05:28:21.721Z,99892.50
2019-05-15T05:30:58.808Z,99899.53
2019-05-15T05:33:35.372Z,99898.26
2019-05-15T05:36:11.430Z,99903.37
2019-05-15T05:38:49.312Z,99901.63
2019-05-15T05:41:25.098Z,99903.84
2019-05-15T05:44:01.039Z,99900.59
2019-05-15T05:46:39.534Z,99902.24
2019-05-15T05:49:14.910Z,99904.03
2019-05-15T05:51:50.865Z,99895.25
2019-05-15T05:54:28.832Z,99896.57
2019-05-15T05:57:04.421Z,99888.16
2019-05-15T05:59:51.187Z,99892.85
2019-05-15T06:02:48.093Z,99895.63
2019-05-15T06:05:31.533Z,99892.13
2019-05-15T06:08:19.862Z,99897.89
2019-05-15T06:11:05.677Z,99898.56
2019-05-15T06:13:53.880Z,99895.45
2019-05-15T06:16:32.708Z,99896.97
2019-05-15T06:19:08.657Z,99897.38
2019-05-15T06:21:54.569Z,99891.16
2019-05-15T06:24:22.407Z,99889.13
2019-05-15T06:26:58.727Z,99878.54
2019-05-15T06:29:34.847Z,99880.58
2019-05-15T06:32:10.804Z,99880.05
2019-05-15T06:34:48.495Z,99879.63
2019-05-15T06:37:24.664Z,99888.05
2019-05-15T06:40:00.606Z,99882.84
2019-05-15T06:42:38.953Z,99887.72
2019-05-15T06:45:14.580Z,99873.44
2019-05-15T06:47:51.551Z,99879.30
2019-05-15T06:50:38.033Z,99883.36
2019-05-15T06:53:13.189Z,99881.09
2019-05-15T06:55:49.353Z,99874.29
2019-05-15T06:58:25.426Z,99876.88
2019-05-15T07:01:01.378Z,99883.08
2019-05-15T07:03:39.221Z,99879.39
2019-05-15T07:06:15.030Z,99875.23
2019-05-15T07:08:50.987Z,99869.66
2019-05-15T07:11:28.197Z,99870.66
2019-05-15T07:14:04.846Z,99873.63
2019-05-15T07:16:40.904Z,99873.68
2019-05-15T07:19:19.022Z,99870.93
2019-05-15T07:21:54.544Z,99882.03
2019-05-15T07:24:30.501Z,99880.58
2019-05-15T07:27:07.996Z,99882.28
2019-05-15T07:29:44.065Z,99876.61
2019-05-15T07:32:21.131Z,99870.98
2019-05-15T07:34:57.886Z,99870.93
2019-05-15T07:37:34.091Z,99873.44
2019-05-15T07:40:10.808Z,99870.45
2019-05-15T07:42:49.036Z,99878.31
2019-05-15T07:45:24.604Z,99864.17
2019-05-15T07:48:00.574Z,99861.58
2019-05-15T07:50:38.816Z,99868.61
2019-05-15T07:53:14.210Z,99864.50
2019-05-15T07:55:51.404Z,99859.06
2019-05-15T07:58:28.494Z,99855.52
2019-05-15T08:01:05.503Z,99855.95
2019-05-15T08:03:55.549Z,99858.55
2019-05-15T08:06:19.424Z,99864.77
2019-05-15T08:08:55.392Z,99870.92
2019-05-15T08:11:31.341Z,99863.84
2019-05-15T08:14:08.925Z,99867.52
2019-05-15T08:16:45.103Z,99876.20
2019-05-15T08:19:21.050Z,99870.48
2019-05-15T08:21:58.175Z,99869.83
2019-05-15T08:24:34.393Z,99873.36
2019-05-15T08:27:10.280Z,99868.59
2019-05-15T08:29:48.563Z,99866.66
2019-05-15T08:32:24.003Z,99866.98
2019-05-15T08:34:59.961Z,99876.58
2019-05-15T08:37:38.308Z,99873.92
2019-05-15T08:40:14.614Z,99869.43
2019-05-15T08:42:57.047Z,99873.80
2019-05-15T08:45:28.403Z,99874.97
2019-05-15T08:48:04.657Z,99878.20
2019-05-15T08:50:40.626Z,99875.77
2019-05-15T08:53:18.968Z,99873.13
2019-05-15T08:55:54.282Z,99878.19
2019-05-15T08:58:30.337Z,99872.89
2019-05-15T09:01:06.294Z,99868.36
2019-05-15T09:03:42.238Z,99865.41
2019-05-15T09:06:22.271Z,99865.06
2019-05-15T09:08:58.343Z,99871.00
2019-05-15T09:11:33.598Z,99867.56
2019-05-15T09:14:09.493Z,99873.86
2019-05-15T09:16:45.512Z,99866.50
2019-05-15T09:19:21.456Z,99871.53
2019-05-15T09:21:58.469Z,99872.00
2019-05-15T09:24:34.711Z,99864.06
2019-05-15T09:27:10.675Z,99864.85
2019-05-15T09:29:48.411Z,99865.70
2019-05-15T09:32:24.218Z,99867.97
2019-05-15T09:35:00.177Z,99857.91
2019-05-15T09:37:38.642Z,99857.70
2019-05-15T09:40:15.001Z,99857.17
2019-05-15T09:42:51.311Z,99854.11
2019-05-15T09:45:28.604Z,99851.88
2019-05-15T09:48:05.155Z,99852.52
2019-05-15T09:50:41.224Z,99856.87
2019-05-15T09:53:18.797Z,99850.34
2019-05-15T09:55:54.891Z,99847.53
2019-05-15T09:58:30.851Z,99844.89
2019-05-15T10:01:08.545Z,99840.82
2019-05-15T10:03:44.733Z,99842.94
2019-05-15T10:06:20.998Z,99833.77
2019-05-15T10:08:56.957Z,99841.41
2019-05-15T10:11:32.870Z,99841.41
2019-05-15T10:14:09.755Z,99833.09
2019-05-15T10:16:48.124Z,99840.98
2019-05-15T10:19:23.766Z,99841.83
2019-05-15T10:21:59.843Z,99835.58
2019-05-15T10:24:35.724Z,99838.77
2019-05-15T10:27:11.687Z,99842.74
2019-05-15T10:29:48.392Z,99836.05
2019-05-15T10:32:24.579Z,99843.52
2019-05-15T10:35:00.772Z,99840.19
2019-05-15T10:37:38.993Z,99837.06
2019-05-15T10:40:15.122Z,99838.86
2019-05-15T10:42:51.149Z,99836.74
2019-05-15T10:45:29.568Z,99839.08
2019-05-15T10:48:05.183Z,99837.75
2019-05-15T10:50:41.043Z,99837.22
2019-05-15T10:53:18.879Z,99832.83
2019-05-15T10:55:55.306Z,99836.95
2019-05-15T10:58:31.253Z,99825.13
2019-05-15T11:01:10.992Z,99827.68
2019-05-15T11:03:44.948Z,99824.33
2019-05-15T11:06:20.856Z,99821.89
2019-05-15T11:08:58.390Z,99817.61
2019-05-15T11:11:34.841Z,99819.50
2019-05-15T11:14:10.733Z,99814.20
2019-05-15T11:16:48.619Z,99810.45
2019-05-15T11:19:24.336Z,99806.95
2019-05-15T11:22:00.293Z,99802.35
2019-05-15T11:24:38.499Z,99801.81
2019-05-15T11:27:14.971Z,99798.95
2019-05-15T11:29:50.922Z,99797.69
2019-05-15T11:32:29.201Z,99794.91
2019-05-15T11:35:06.288Z,99794.66
2019-05-15T11:37:46.477Z,99793.81
2019-05-15T11:40:20.873Z,99793.12
2019-05-15T11:42:56.813Z,99790.97
2019-05-15T11:45:32.977Z,99792.36
2019-05-15T11:48:09.212Z,99791.41
2019-05-15T11:50:45.108Z,99803.28
2019-05-15T11:53:21.021Z,99794.48
2019-05-15T11:55:56.969Z,99798.36
2019-05-15T11:58:32.875Z,99799.05
2019-05-15T12:01:08.831Z,99796.12
2019-05-15T12:03:44.750Z,99791.82
2019-05-15T12:06:22.952Z,99790.27
2019-05-15T12:08:59.222Z,99786.98
2019-05-15T12:11:37.917Z,99786.84
2019-05-15T12:14:13.275Z,99782.32
2019-05-15T12:17:05.116Z,99786.67
2019-05-15T12:19:29.204Z,99774.52
2019-05-15T12:22:04.481Z,99776.31
2019-05-15T12:24:41.580Z,99776.94
2019-05-15T12:27:18.362Z,99772.17
2019-05-15T12:29:54.516Z,99776.47
2019-05-15T12:32:36.038Z,99769.14
2019-05-15T12:35:08.207Z,99766.97
2019-05-15T12:37:44.124Z,99777.17
2019-05-15T13:01:21.918Z,99756.67
2019-05-15T13:03:58.060Z,99758.69
2019-05-15T13:06:47.399Z,99755.87
2019-05-15T13:09:11.588Z,99757.84
2019-05-15T13:11:48.477Z,99754.48
2019-05-15T13:14:24.609Z,99751.35
2019-05-15T13:17:00.480Z,99747.69
2019-05-15T13:19:38.680Z,99746.36
2019-05-15T13:22:18.093Z,99747.38
2019-05-15T13:24:51.593Z,99742.48
2019-05-15T13:27:27.700Z,99743.80
2019-05-15T13:30:04.539Z,99742.31
2019-05-15T13:32:41.235Z,99737.30
2019-05-15T13:35:18.408Z,99738.50
2019-05-15T13:37:54.416Z,99726.94
2019-05-15T13:40:37.126Z,99727.58
2019-05-15T13:43:08.466Z,99737.23
2019-05-15T13:45:44.612Z,99729.45
2019-05-15T13:48:20.650Z,99719.52
2019-05-15T13:50:58.796Z,99724.22
2019-05-15T13:53:34.201Z,99725.45
2019-05-15T13:56:10.152Z,99719.13
2019-05-15T13:58:48.124Z,99721.40
2019-05-15T14:01:23.693Z,99718.03
2019-05-15T14:03:59.665Z,99709.46
2019-05-15T14:06:37.816Z,99715.85
2019-05-15T14:09:13.226Z,99711.27
2019-05-15T14:11:49.782Z,99711.27
2019-05-15T14:14:25.828Z,99715.99
2019-05-15T14:17:01.748Z,99708.52
2019-05-15T14:19:38.652Z,99710.25
2019-05-15T14:22:14.734Z,99709.36
2019-05-15T14:24:50.675Z,99708.03
2019-05-15T14:27:29.004Z,99709.16
2019-05-15T14:30:09.576Z,99704.27
2019-05-15T14:32:48.256Z,99703.20
2019-05-15T14:35:23.068Z,99698.75
2019-05-15T14:38:06.357Z,99697.36
2019-05-15T14:40:36.590Z,99700.48
2019-05-15T14:43:12.604Z,99705.28
2019-05-15T14:45:48.551Z,99707.66
2019-05-15T14:48:24.788Z,99712.59
2019-05-15T14:51:00.692Z,99696.09
2019-05-15T14:53:38.569Z,99704.05
2019-05-15T14:56:15.200Z,99707.50
2019-05-15T14:58:51.233Z,99702.46
2019-05-15T15:01:27.187Z,99706.34
2019-05-15T15:04:04.157Z,99699.70
2019-05-15T15:06:40.249Z,99708.69
2019-05-15T15:09:16.288Z,99708.69
2019-05-15T15:11:52.238Z,99701.58
2019-05-15T15:14:28.582Z,99705.39
2019-05-15T15:17:04.859Z,99700.56
2019-05-15T15:19:40.842Z,99704.06
2019-05-15T15:22:16.785Z,99697.67
2019-05-15T15:24:52.699Z,99694.78
2019-05-15T15:27:28.607Z,99696.03
2019-05-15T15:30:09.170Z,99696.98
2019-05-15T15:32:44.480Z,99702.19
2019-05-15T15:35:20.387Z,99701.03
2019-05-15T15:37:58.062Z,99704.09
2019-05-15T15:40:34.122Z,99704.40
2019-05-15T15:43:10.002Z,99695.97
2019-05-15T15:45:48.445Z,99696.92
2019-05-15T15:48:24.505Z,99696.92
2019-05-15T15:51:00.433Z,99695.66
2019-05-15T15:53:36.339Z,99700.11
2019-05-15T15:56:13.916Z,99699.09
2019-05-15T15:58:49.835Z,99693.62
2019-05-15T16:01:27.780Z,99693.14
2019-05-15T16:04:03.386Z,99697.05
2019-05-15T16:06:39.290Z,99696.68
2019-05-15T16:09:15.499Z,99702.36
2019-05-15T16:11:53.196Z,99693.55
2019-05-15T16:14:29.109Z,99691.75
2019-05-15T16:17:05.375Z,99693.38
2019-05-15T16:19:45.552Z,99694.78
2019-05-15T16:22:28.365Z,99692.70
2019-05-15T16:25:09.249Z,99690.42
2019-05-15T16:27:43.840Z,99690.18
2019-05-15T16:30:21.006Z,99695.48
2019-05-15T16:33:03.038Z,99686.75
2019-05-15T16:35:39.202Z,99688.85
2019-05-15T16:38:16.117Z,99686.27
2019-05-15T16:40:52.067Z,99677.53
2019-05-15T16:43:28.567Z,99677.83
2019-05-15T16:46:04.724Z,99678.23
2019-05-15T16:48:42.516Z,99680.48
2019-05-15T16:51:18.383Z,99673.71
2019-05-15T16:53:54.329Z,99677.22
2019-05-15T16:56:30.223Z,99667.83
2019-05-15T16:59:06.152Z,99666.37
2019-05-15T17:01:42.328Z,99672.45
2019-05-15T17:04:18.445Z,99665.65
2019-05-15T17:06:54.440Z,99663.70
2019-05-15T17:09:30.374Z,99666.26
2019-05-15T17:12:08.739Z,99667.41
2019-05-15T17:14:43.974Z,99666.56
2019-05-15T17:17:19.929Z,99665.33
2019-05-15T17:19:57.889Z,99659.14
2019-05-15T17:22:33.584Z,99661.42
2019-05-15T17:25:10.039Z,99664.32
2019-05-15T17:27:46.006Z,99666.43
2019-05-15T17:30:22.170Z,99666.19
2019-05-15T17:32:58.932Z,99666.80
2019-05-15T17:35:34.902Z,99662.20
2019-05-15T17:38:10.850Z,99659.31
2019-05-15T17:40:48.463Z,99658.35
2019-05-15T17:43:24.615Z,99657.98
2019-05-15T17:46:00.567Z,99657.87
2019-05-15T17:48:38.694Z,99661.73
2019-05-15T17:51:14.208Z,99656.48
2019-05-15T17:53:51.495Z,99654.30
2019-05-15T17:56:28.426Z,99657.20
2019-05-15T17:59:04.535Z,99653.11
2019-05-15T18:01:40.504Z,99656.66
2019-05-15T18:04:18.764Z,99651.17
2019-05-15T18:06:54.156Z,99645.61
2019-05-15T18:09:30.107Z,99650.27
2019-05-15T18:12:10.693Z,99649.48
2019-05-15T18:14:43.756Z,99649.67
2019-05-15T18:17:19.723Z,99640.38
2019-05-15T18:19:57.966Z,99636.77
2019-05-15T18:22:33.363Z,99639.59
2019-05-15T18:25:10.049Z,99637.49
2019-05-15T18:27:48.089Z,99641.58
2019-05-15T18:30:23.703Z,99635.80
2019-05-15T18:33:00.071Z,99633.20
2019-05-15T18:35:38.471Z,99631.56
2019-05-15T18:38:14.633Z,99634.99
2019-05-15T18:40:50.709Z,99630.84
2019-05-15T18:43:28.548Z,99623.67
2019-05-15T18:46:04.461Z,99622.82
2019-05-15T18:48:40.403Z,99624.15
2019-05-15T18:51:17.500Z,99633.98
2019-05-15T18:53:53.555Z,99633.98
2019-05-15T18:56:30.638Z,99639.30
2019-05-15T18:59:08.478Z,99637.59
2019-05-15T19:01:44.190Z,99639.30
2019-05-15T19:04:20.123Z,99630.86
2019-05-15T19:06:58.300Z,99627.10
2019-05-15T19:09:34.506Z,99619.39
2019-05-15T19:12:10.465Z,99615.95
2019-05-15T19:14:49.208Z,99610.20
2019-05-15T19:17:24.116Z,99609.42
2019-05-15T19:20:00.075Z,99613.78
2019-05-15T19:22:40.538Z,99609.50
2019-05-15T19:25:13.929Z,99613.00
2019-05-15T19:27:49.998Z,99600.21
2019-05-15T19:30:28.457Z,99598.27
2019-05-15T19:33:03.754Z,99596.23
2019-05-15T19:35:40.827Z,99586.46
2019-05-15T19:38:18.588Z,99588.97
2019-05-15T19:40:54.498Z,99585.44
2019-05-15T19:43:31.156Z,99584.03
2019-05-15T19:46:07.990Z,99573.12
2019-05-15T19:48:44.110Z,99572.34
2019-05-15T19:51:20.059Z,99566.56
2019-05-15T19:53:58.667Z,99569.87
2019-05-15T19:56:35.045Z,99567.03
2019-05-15T19:59:10.998Z,99567.14
2019-05-15T20:01:48.604Z,99567.09
2019-05-15T20:04:24.742Z,99553.58
2019-05-15T20:07:00.802Z,99551.77
2019-05-15T20:09:38.330Z,99557.85
2019-05-15T20:12:14.569Z,99556.34
2019-05-15T20:14:51.150Z,99559.48
2019-05-15T20:17:27.713Z,99557.02
2019-05-15T20:20:04.981Z,99563.66
2019-05-15T20:22:42.597Z,99562.14
2019-05-15T20:25:18.742Z,99559.59
2019-05-15T20:27:54.711Z,99537.89
2019-05-15T20:30:30.657Z,99533.78
2019-05-15T20:33:08.933Z,99540.50
2019-05-15T20:35:44.628Z,99543.37
2019-05-15T20:38:20.574Z,99546.70
2019-05-15T20:40:59.480Z,99544.81
2019-05-15T20:43:34.443Z,99530.41
2019-05-15T20:46:10.387Z,99533.02
2019-05-15T20:48:48.583Z,99530.10
2019-05-15T20:51:24.045Z,99520.89
2019-05-15T20:53:59.998Z,99517.20
2019-05-15T20:56:38.289Z,99522.03
2019-05-15T20:59:13.651Z,99520.70
2019-05-15T21:01:50.799Z,99510.80
2019-05-15T21:04:28.088Z,99509.06
2019-05-15T21:07:04.296Z,99518.27
2019-05-15T21:09:40.448Z,99509.72
2019-05-15T21:12:17.939Z,99509.24
2019-05-15T21:14:54.110Z,99508.39
2019-05-15T21:17:30.069Z,99505.73
2019-05-15T21:20:09.048Z,99503.45
2019-05-15T21:22:44.224Z,99502.79
2019-05-15T21:25:20.178Z,99504.89
2019-05-15T21:27:56.134Z,99515.33
2019-05-15T21:30:32.101Z,99522.73
2019-05-15T21:33:08.669Z,99527.20
2019-05-15T21:35:44.823Z,99520.93
2019-05-15T21:38:21.334Z,99524.73
2019-05-15T21:40:58.633Z,99530.48
2019-05-15T21:43:34.843Z,99533.33
2019-05-15T21:46:10.800Z,99523.26
2019-05-15T21:48:48.710Z,99512.27
2019-05-15T21:51:24.461Z,99503.23
2019-05-15T21:54:01.181Z,99493.06
2019-05-15T21:56:38.600Z,99496.09
2019-05-15T21:59:14.790Z,99500.06
2019-05-15T22:01:50.856Z,99495.45
2019-05-15T22:04:28.122Z,99492.02
2019-05-15T22:07:08.851Z,99484.58
2019-05-15T22:09:43.837Z,99480.89
2019-05-15T22:12:21.024Z,99475.66
2019-05-15T22:14:58.096Z,99477.24
2019-05-15T22:17:34.274Z,99478.53
2019-05-15T22:20:10.623Z,99480.04
2019-05-15T22:22:50.387Z,99477.56
2019-05-15T22:25:23.459Z,99480.78
2019-05-15T22:27:59.426Z,99472.81
2019-05-15T22:30:35.583Z,99470.64
2019-05-15T22:33:11.955Z,99473.41
2019-05-15T22:35:48.839Z,99470.00
2019-05-15T22:38:28.393Z,99479.59
2019-05-15T22:41:03.906Z,99478.84
2019-05-15T22:43:39.861Z,99477.04
2019-05-15T22:46:18.435Z,99467.83
2019-05-15T22:48:53.414Z,99467.64
2019-05-15T22:51:29.993Z,99466.71
2019-05-15T22:54:08.488Z,99468.12
2019-05-15T22:56:45.083Z,99468.81
2019-05-15T22:59:21.027Z,99467.56
2019-05-15T23:01:58.161Z,99467.08
2019-05-15T23:04:34.271Z,99457.98
2019-05-15T23:07:10.341Z,99458.64
2019-05-15T23:09:51.257Z,99455.53
2019-05-15T23:12:28.708Z,99451.70
2019-05-15T23:15:05.403Z,99449.45
2019-05-15T23:17:48.736Z,99448.02
2019-05-15T23:20:25.791Z,99439.76
2019-05-15T23:23:01.735Z,99436.73
2019-05-15T23:25:38.102Z,99435.62
2019-05-15T23:28:14.262Z,99436.27
2019-05-15T23:30:50.218Z,99435.72
2019-05-15T23:33:28.105Z,99439.03
2019-05-15T23:36:03.874Z,99437.06
2019-05-15T23:38:39.839Z,99438.58
2019-05-15T23:41:15.888Z,99437.72
2019-05-15T23:43:51.841Z,99433.25
2019-05-15T23:46:28.832Z,99432.23
2019-05-15T23:49:05.003Z,99427.19
2019-05-15T23:54:15.055Z,99432.31
2019-05-15T23:56:51.029Z,99428.25
2019-05-15T23:59:28.197Z,99428.34
